sensor_id;sensor_type;location;lat;lon;timestamp;pressure;altitude;pressure_sealevel;temperature;humidity
3524;BME280;1776;53.330;11.498;2022-10-24T00:00:16;53920.63;;;-147.39;81.25
3524;BME280;1776;53.330;11.498;2022-10-24T00:02:42;53924.72;;;-147.39;81.54
3524;BME280;1776;53.330;11.498;2022-10-24T00:05:11;53922.66;;;-147.39;81.56
3524;BME280;1776;53.330;11.498;2022-10-24T00:07:36;53937.00;;;-147.39;82.03
3524;BME280;1776;53.330;11.498;2022-10-24T00:10:03;53879.63;;;-147.39;82.06
3524;BME280;1776;53.330;11.498;2022-10-24T00:12:28;53898.06;;;-147.39;82.02
3524;BME280;1776;53.330;11.498;2022-10-24T00:14:53;53896.03;;;-147.39;82.23
3524;BME280;1776;53.330;11.498;2022-10-24T00:17:19;53902.19;;;-147.39;82.46
3524;BME280;1776;53.330;11.498;2022-10-24T00:19:44;53941.09;;;-147.39;82.50
3524;BME280;1776;53.330;11.498;2022-10-24T00:22:09;53904.22;;;-147.39;82.71
3524;BME280;1776;53.330;11.498;2022-10-24T00:24:34;53912.41;;;-147.39;82.81
3524;BME280;1776;53.330;11.498;2022-10-24T00:27:00;53908.31;;;-147.39;82.99
3524;BME280;1776;53.330;11.498;2022-10-24T00:29:25;53887.84;;;-147.39;83.02
3524;BME280;1776;53.330;11.498;2022-10-24T00:31:50;53930.84;;;-147.39;83.77
3524;BME280;1776;53.330;11.498;2022-10-24T00:34:16;53912.41;;;-147.39;83.82
3524;BME280;1776;53.330;11.498;2022-10-24T00:36:41;53924.72;;;-147.39;83.74
3524;BME280;1776;53.330;11.498;2022-10-24T00:39:06;53885.78;;;-147.39;83.79
3524;BME280;1776;53.330;11.498;2022-10-24T00:41:35;53930.84;;;-147.39;83.72
3524;BME280;1776;53.330;11.498;2022-10-24T00:44:23;53904.22;;;-147.39;83.75
3524;BME280;1776;53.330;11.498;2022-10-24T00:47:05;53922.66;;;-147.39;83.44
3524;BME280;1776;53.330;11.498;2022-10-24T00:49:51;53902.19;;;-147.39;83.41
3524;BME280;1776;53.330;11.498;2022-10-24T00:52:23;53941.09;;;-147.39;83.20
3524;BME280;1776;53.330;11.498;2022-10-24T00:54:51;53928.81;;;-147.39;83.26
3524;BME280;1776;53.330;11.498;2022-10-24T00:57:28;53926.75;;;-147.39;83.64
3524;BME280;1776;53.330;11.498;2022-10-24T01:00:04;53916.50;;;-147.39;83.55
3524;BME280;1776;53.330;11.498;2022-10-24T01:02:30;53908.31;;;-147.39;84.04
3524;BME280;1776;53.330;11.498;2022-10-24T01:04:56;53957.50;;;-147.39;84.04
3524;BME280;1776;53.330;11.498;2022-10-24T01:07:38;53926.75;;;-147.39;84.34
3524;BME280;1776;53.330;11.498;2022-10-24T01:13:55;53916.50;;;-147.39;83.57
3524;BME280;1776;53.330;11.498;2022-10-24T01:16:26;53904.22;;;-147.39;83.48
3524;BME280;1776;53.330;11.498;2022-10-24T01:24:25;53889.88;;;-147.39;83.10
3524;BME280;1776;53.330;11.498;2022-10-24T01:27:09;53916.50;;;-147.39;82.83
3524;BME280;1776;53.330;11.498;2022-10-24T01:40:41;53898.06;;;-147.39;83.54
3524;BME280;1776;53.330;11.498;2022-10-24T01:43:11;53932.91;;;-147.39;83.35
3524;BME280;1776;53.330;11.498;2022-10-24T01:45:40;53900.13;;;-147.39;83.49
3524;BME280;1776;53.330;11.498;2022-10-24T01:48:09;53941.09;;;-147.39;83.76
3524;BME280;1776;53.330;11.498;2022-10-24T01:50:37;53918.56;;;-147.39;83.58
3524;BME280;1776;53.330;11.498;2022-10-24T01:53:03;53920.63;;;-147.39;83.33
3524;BME280;1776;53.330;11.498;2022-10-24T01:55:31;53918.56;;;-147.39;83.30
3524;BME280;1776;53.330;11.498;2022-10-24T01:57:57;53922.66;;;-147.39;83.35
3524;BME280;1776;53.330;11.498;2022-10-24T02:00:22;53934.97;;;-147.39;83.40
3524;BME280;1776;53.330;11.498;2022-10-24T02:03:10;53879.63;;;-147.39;83.39
3524;BME280;1776;53.330;11.498;2022-10-24T02:05:44;53947.25;;;-147.39;83.74
3524;BME280;1776;53.330;11.498;2022-10-24T02:08:16;53910.38;;;-147.39;83.63
3524;BME280;1776;53.330;11.498;2022-10-24T02:10:56;53932.91;;;-147.39;83.62
3524;BME280;1776;53.330;11.498;2022-10-24T02:13:38;53924.72;;;-147.39;83.57
3524;BME280;1776;53.330;11.498;2022-10-24T02:16:05;53891.94;;;-147.39;83.40
3524;BME280;1776;53.330;11.498;2022-10-24T02:18:31;53908.31;;;-147.39;83.35
3524;BME280;1776;53.330;11.498;2022-10-24T02:23:59;53914.47;;;-147.39;83.30
3524;BME280;1776;53.330;11.498;2022-10-24T02:26:34;53943.16;;;-147.39;83.37
3524;BME280;1776;53.330;11.498;2022-10-24T02:29:07;53939.06;;;-147.39;83.14
3524;BME280;1776;53.330;11.498;2022-10-24T02:31:38;53996.41;;;-147.39;83.31
3524;BME280;1776;53.330;11.498;2022-10-24T02:34:05;53920.63;;;-147.39;83.54
3524;BME280;1776;53.330;11.498;2022-10-24T02:36:33;53930.84;;;-147.39;83.41
3524;BME280;1776;53.330;11.498;2022-10-24T02:39:01;53947.25;;;-147.39;83.51
3524;BME280;1776;53.330;11.498;2022-10-24T02:41:30;53928.81;;;-147.39;83.47
3524;BME280;1776;53.330;11.498;2022-10-24T02:43:58;53941.09;;;-147.39;83.50
3524;BME280;1776;53.330;11.498;2022-10-24T02:46:25;53924.72;;;-147.39;83.27
3524;BME280;1776;53.330;11.498;2022-10-24T02:48:59;53914.47;;;-147.39;83.06
3524;BME280;1776;53.330;11.498;2022-10-24T02:51:32;53924.72;;;-147.39;82.97
3524;BME280;1776;53.330;11.498;2022-10-24T02:53:59;54000.50;;;-147.39;82.52
3524;BME280;1776;53.330;11.498;2022-10-24T02:56:25;53924.72;;;-147.39;82.37
3524;BME280;1776;53.330;11.498;2022-10-24T02:58:51;53937.00;;;-147.39;82.67
3524;BME280;1776;53.330;11.498;2022-10-24T03:01:16;53945.19;;;-147.39;83.37
3524;BME280;1776;53.330;11.498;2022-10-24T03:03:41;53943.16;;;-147.39;83.26
3524;BME280;1776;53.330;11.498;2022-10-24T03:06:07;53922.66;;;-147.39;83.74
3524;BME280;1776;53.330;11.498;2022-10-24T03:08:32;53947.25;;;-147.39;83.79
3524;BME280;1776;53.330;11.498;2022-10-24T03:10:57;53955.44;;;-147.39;83.74
3524;BME280;1776;53.330;11.498;2022-10-24T03:13:22;53943.16;;;-147.39;83.62
3524;BME280;1776;53.330;11.498;2022-10-24T03:15:48;53934.97;;;-147.39;83.45
3524;BME280;1776;53.330;11.498;2022-10-24T03:18:13;53953.41;;;-147.39;83.14
3524;BME280;1776;53.330;11.498;2022-10-24T03:20:38;54016.91;;;-147.39;83.13
3524;BME280;1776;53.330;11.498;2022-10-24T03:23:04;53916.50;;;-147.39;83.35
3524;BME280;1776;53.330;11.498;2022-10-24T03:25:30;53920.63;;;-147.39;83.48
3524;BME280;1776;53.330;11.498;2022-10-24T03:27:55;53922.66;;;-147.39;83.76
3524;BME280;1776;53.330;11.498;2022-10-24T03:30:20;53939.06;;;-147.39;83.58
3524;BME280;1776;53.330;11.498;2022-10-24T03:32:45;53937.00;;;-147.39;83.57
3524;BME280;1776;53.330;11.498;2022-10-24T03:35:11;53914.47;;;-147.39;83.39
3524;BME280;1776;53.330;11.498;2022-10-24T03:37:36;53955.44;;;-147.39;82.97
3524;BME280;1776;53.330;11.498;2022-10-24T03:40:02;53939.06;;;-147.39;83.09
3524;BME280;1776;53.330;11.498;2022-10-24T03:42:27;53939.06;;;-147.39;82.50
3524;BME280;1776;53.330;11.498;2022-10-24T03:44:53;53926.75;;;-147.39;82.58
3524;BME280;1776;53.330;11.498;2022-10-24T03:47:18;53924.72;;;-147.39;82.64
3524;BME280;1776;53.330;11.498;2022-10-24T03:49:44;53939.06;;;-147.39;82.60
3524;BME280;1776;53.330;11.498;2022-10-24T03:52:09;54012.81;;;-147.39;82.29
3524;BME280;1776;53.330;11.498;2022-10-24T03:54:34;53947.25;;;-147.39;82.58
3524;BME280;1776;53.330;11.498;2022-10-24T03:57:00;53969.78;;;-147.39;83.22
3524;BME280;1776;53.330;11.498;2022-10-24T03:59:25;53951.34;;;-147.39;83.21
3524;BME280;1776;53.330;11.498;2022-10-24T04:01:51;53951.34;;;-147.39;83.10
3524;BME280;1776;53.330;11.498;2022-10-24T04:04:16;53953.41;;;-147.39;82.73
3524;BME280;1776;53.330;11.498;2022-10-24T04:06:41;53930.84;;;-147.39;83.25
3524;BME280;1776;53.330;11.498;2022-10-24T04:09:07;53943.16;;;-147.39;83.06
3524;BME280;1776;53.330;11.498;2022-10-24T04:11:32;53947.25;;;-147.39;83.11
3524;BME280;1776;53.330;11.498;2022-10-24T04:13:58;53922.66;;;-147.39;82.79
3524;BME280;1776;53.330;11.498;2022-10-24T04:16:25;53939.06;;;-147.39;82.54
3524;BME280;1776;53.330;11.498;2022-10-24T04:18:50;53947.25;;;-147.39;82.27
3524;BME280;1776;53.330;11.498;2022-10-24T04:21:16;53924.72;;;-147.39;82.35
3524;BME280;1776;53.330;11.498;2022-10-24T04:23:42;53926.75;;;-147.39;82.37
3524;BME280;1776;53.330;11.498;2022-10-24T04:26:10;53932.91;;;-147.39;82.35
3524;BME280;1776;53.330;11.498;2022-10-24T04:28:36;53939.06;;;-147.39;82.04
3524;BME280;1776;53.330;11.498;2022-10-24T04:31:01;53937.00;;;-147.39;82.03
3524;BME280;1776;53.330;11.498;2022-10-24T04:33:27;53908.31;;;-147.39;81.77
3524;BME280;1776;53.330;11.498;2022-10-24T04:35:52;53945.19;;;-147.39;81.63
3524;BME280;1776;53.330;11.498;2022-10-24T04:38:18;53945.19;;;-147.39;82.03
3524;BME280;1776;53.330;11.498;2022-10-24T04:40:45;54010.75;;;-147.39;81.93
3524;BME280;1776;53.330;11.498;2022-10-24T04:43:11;54004.63;;;-147.39;82.29
3524;BME280;1776;53.330;11.498;2022-10-24T04:45:37;53945.19;;;-147.39;82.12
3524;BME280;1776;53.330;11.498;2022-10-24T04:48:02;53971.84;;;-147.39;82.06
3524;BME280;1776;53.330;11.498;2022-10-24T04:50:28;53928.81;;;-147.39;82.17
3524;BME280;1776;53.330;11.498;2022-10-24T04:52:53;53943.16;;;-147.39;82.52
3524;BME280;1776;53.330;11.498;2022-10-24T04:55:18;53945.19;;;-147.39;82.45
3524;BME280;1776;53.330;11.498;2022-10-24T04:57:43;53924.72;;;-147.39;82.50
3524;BME280;1776;53.330;11.498;2022-10-24T05:00:09;53937.00;;;-147.39;82.59
3524;BME280;1776;53.330;11.498;2022-10-24T05:02:34;53953.41;;;-147.39;82.28
3524;BME280;1776;53.330;11.498;2022-10-24T05:05:00;53951.34;;;-147.39;82.13
3524;BME280;1776;53.330;11.498;2022-10-24T05:07:25;53953.41;;;-147.39;82.23
3524;BME280;1776;53.330;11.498;2022-10-24T05:09:50;53908.31;;;-147.39;82.38
3524;BME280;1776;53.330;11.498;2022-10-24T05:12:16;53957.50;;;-147.39;82.32
3524;BME280;1776;53.330;11.498;2022-10-24T05:14:41;53926.75;;;-147.39;82.39
3524;BME280;1776;53.330;11.498;2022-10-24T05:17:06;53910.38;;;-147.39;82.73
3524;BME280;1776;53.330;11.498;2022-10-24T05:19:31;53953.41;;;-147.39;82.87
3524;BME280;1776;53.330;11.498;2022-10-24T05:21:57;53949.28;;;-147.39;82.98
3524;BME280;1776;53.330;11.498;2022-10-24T05:24:22;53959.53;;;-147.39;83.02
3524;BME280;1776;53.330;11.498;2022-10-24T05:26:48;53932.91;;;-147.39;82.85
3524;BME280;1776;53.330;11.498;2022-10-24T05:29:13;53943.16;;;-147.39;83.60
3524;BME280;1776;53.330;11.498;2022-10-24T05:31:38;54051.75;;;-147.39;83.66
3524;BME280;1776;53.330;11.498;2022-10-24T05:34:04;53982.06;;;-147.39;83.99
3524;BME280;1776;53.330;11.498;2022-10-24T05:36:29;53937.00;;;-147.39;83.72
3524;BME280;1776;53.330;11.498;2022-10-24T05:38:55;53955.44;;;-147.39;83.92
3524;BME280;1776;53.330;11.498;2022-10-24T05:41:20;53945.19;;;-147.39;83.87
3524;BME280;1776;53.330;11.498;2022-10-24T05:43:45;53986.19;;;-147.39;83.72
3524;BME280;1776;53.330;11.498;2022-10-24T05:46:11;53945.19;;;-147.39;83.64
3524;BME280;1776;53.330;11.498;2022-10-24T05:48:36;53957.50;;;-147.39;83.56
3524;BME280;1776;53.330;11.498;2022-10-24T05:51:01;54027.16;;;-147.39;83.42
3524;BME280;1776;53.330;11.498;2022-10-24T05:53:26;53955.44;;;-147.39;83.48
3524;BME280;1776;53.330;11.498;2022-10-24T05:55:52;53984.13;;;-147.39;83.41
3524;BME280;1776;53.330;11.498;2022-10-24T05:58:17;53961.59;;;-147.39;83.50
3524;BME280;1776;53.330;11.498;2022-10-24T06:00:46;53947.25;;;-147.39;83.75
3524;BME280;1776;53.330;11.498;2022-10-24T06:03:12;53961.59;;;-147.39;83.86
3524;BME280;1776;53.330;11.498;2022-10-24T06:05:37;54014.84;;;-147.39;83.46
3524;BME280;1776;53.330;11.498;2022-10-24T06:08:02;53945.19;;;-147.39;83.18
3524;BME280;1776;53.330;11.498;2022-10-24T06:10:28;53945.19;;;-147.39;83.48
3524;BME280;1776;53.330;11.498;2022-10-24T06:12:53;53947.25;;;-147.39;83.64
3524;BME280;1776;53.330;11.498;2022-10-24T06:15:18;54006.66;;;-147.39;83.59
3524;BME280;1776;53.330;11.498;2022-10-24T06:17:44;53939.06;;;-147.39;83.32
3524;BME280;1776;53.330;11.498;2022-10-24T06:20:09;53932.91;;;-147.39;83.02
3524;BME280;1776;53.330;11.498;2022-10-24T06:22:35;53973.88;;;-147.39;83.10
3524;BME280;1776;53.330;11.498;2022-10-24T06:25:00;53939.06;;;-147.39;82.98
3524;BME280;1776;53.330;11.498;2022-10-24T06:27:26;53951.34;;;-147.39;82.76
3524;BME280;1776;53.330;11.498;2022-10-24T06:29:51;53957.50;;;-147.39;82.76
3524;BME280;1776;53.330;11.498;2022-10-24T06:32:17;53998.47;;;-147.39;82.69
3524;BME280;1776;53.330;11.498;2022-10-24T06:34:42;53961.59;;;-147.39;82.57
3524;BME280;1776;53.330;11.498;2022-10-24T06:37:07;53934.97;;;-147.39;82.35
3524;BME280;1776;53.330;11.498;2022-10-24T06:39:33;53959.53;;;-147.39;82.03
3524;BME280;1776;53.330;11.498;2022-10-24T06:41:59;53937.00;;;-147.39;82.08
3524;BME280;1776;53.330;11.498;2022-10-24T06:44:25;53965.69;;;-147.39;82.25
3524;BME280;1776;53.330;11.498;2022-10-24T06:46:50;53953.41;;;-147.39;82.10
3524;BME280;1776;53.330;11.498;2022-10-24T06:49:16;53953.41;;;-147.39;82.75
3524;BME280;1776;53.330;11.498;2022-10-24T06:51:41;53977.97;;;-147.39;82.82
3524;BME280;1776;53.330;11.498;2022-10-24T06:54:07;53969.78;;;-147.39;82.64
3524;BME280;1776;53.330;11.498;2022-10-24T06:56:32;53955.44;;;-147.39;82.60
3524;BME280;1776;53.330;11.498;2022-10-24T06:58:58;53945.19;;;-147.39;82.31
3524;BME280;1776;53.330;11.498;2022-10-24T07:01:24;53951.34;;;-147.39;82.02
3524;BME280;1776;53.330;11.498;2022-10-24T07:03:51;53943.16;;;-147.39;81.79
3524;BME280;1776;53.330;11.498;2022-10-24T07:06:18;53934.97;;;-147.39;81.83
3524;BME280;1776;53.330;11.498;2022-10-24T07:08:44;53961.59;;;-147.39;81.62
3524;BME280;1776;53.330;11.498;2022-10-24T07:11:09;53951.34;;;-147.39;81.68
3524;BME280;1776;53.330;11.498;2022-10-24T07:13:35;53955.44;;;-147.39;81.40
3524;BME280;1776;53.330;11.498;2022-10-24T07:16:00;53947.25;;;-147.39;81.46
3524;BME280;1776;53.330;11.498;2022-10-24T07:18:25;53928.81;;;-147.39;81.06
3524;BME280;1776;53.330;11.498;2022-10-24T07:20:51;53934.97;;;-147.39;80.83
3524;BME280;1776;53.330;11.498;2022-10-24T07:23:16;53953.41;;;-147.39;80.72
3524;BME280;1776;53.330;11.498;2022-10-24T07:25:42;53932.91;;;-147.39;80.68
3524;BME280;1776;53.330;11.498;2022-10-24T07:28:08;53957.50;;;-147.39;80.91
3524;BME280;1776;53.330;11.498;2022-10-24T07:30:35;53906.28;;;-147.39;80.79
3524;BME280;1776;53.330;11.498;2022-10-24T07:33:00;53937.00;;;-147.39;80.67
3524;BME280;1776;53.330;11.498;2022-10-24T07:35:25;53930.84;;;-147.39;80.53
3524;BME280;1776;53.330;11.498;2022-10-24T07:37:51;53941.09;;;-147.39;80.62
3524;BME280;1776;53.330;11.498;2022-10-24T07:40:17;53941.09;;;-147.39;80.22
3524;BME280;1776;53.330;11.498;2022-10-24T07:42:43;53939.06;;;-147.39;79.87
3524;BME280;1776;53.330;11.498;2022-10-24T07:45:08;53924.72;;;-147.39;79.45
3524;BME280;1776;53.330;11.498;2022-10-24T07:47:34;53941.09;;;-147.39;79.30
3524;BME280;1776;53.330;11.498;2022-10-24T07:49:59;53934.97;;;-147.39;79.30
3524;BME280;1776;53.330;11.498;2022-10-24T07:52:24;53926.75;;;-147.39;78.71
3524;BME280;1776;53.330;11.498;2022-10-24T07:54:53;53883.75;;;-147.39;77.95
3524;BME280;1776;53.330;11.498;2022-10-24T07:57:18;53883.75;;;-147.39;76.59
3524;BME280;1776;53.330;11.498;2022-10-24T07:59:44;53893.97;;;-147.39;75.67
3524;BME280;1776;53.330;11.498;2022-10-24T08:02:11;53932.91;;;-147.39;74.86
3524;BME280;1776;53.330;11.498;2022-10-24T08:04:37;53881.69;;;-147.39;73.39
3524;BME280;1776;53.330;11.498;2022-10-24T08:07:02;53873.50;;;-147.39;71.84
3524;BME280;1776;53.330;11.498;2022-10-24T08:09:27;53836.63;;;-147.39;69.36
3524;BME280;1776;53.330;11.498;2022-10-24T08:11:53;53803.84;;;-147.39;65.91
3524;BME280;1776;53.330;11.498;2022-10-24T08:14:18;53779.25;;;-147.39;61.94
3524;BME280;1776;53.330;11.498;2022-10-24T08:16:43;53795.66;;;-147.39;60.35
3524;BME280;1776;53.330;11.498;2022-10-24T08:19:10;53766.97;;;-147.39;58.31
3524;BME280;1776;53.330;11.498;2022-10-24T08:21:36;53754.66;;;-147.39;58.70
3524;BME280;1776;53.330;11.498;2022-10-24T08:24:01;53793.59;;;-147.39;61.29
3524;BME280;1776;53.330;11.498;2022-10-24T08:26:26;53818.19;;;-147.39;61.32
3524;BME280;1776;53.330;11.498;2022-10-24T08:28:52;53807.94;;;-147.39;60.93
3524;BME280;1776;53.330;11.498;2022-10-24T08:31:21;53789.50;;;-147.39;59.93
3524;BME280;1776;53.330;11.498;2022-10-24T08:33:47;53764.91;;;-147.39;60.76
3524;BME280;1776;53.330;11.498;2022-10-24T08:36:20;53793.59;;;-147.39;61.53
3524;BME280;1776;53.330;11.498;2022-10-24T08:38:46;53783.34;;;-147.39;61.56
3524;BME280;1776;53.330;11.498;2022-10-24T08:41:30;53762.88;;;-147.39;61.14
3524;BME280;1776;53.330;11.498;2022-10-24T08:43:59;53783.34;;;-147.39;60.72
3524;BME280;1776;53.330;11.498;2022-10-24T08:46:39;53787.44;;;-147.39;60.91
3524;BME280;1776;53.330;11.498;2022-10-24T08:51:57;53801.78;;;-147.39;63.37
3524;BME280;1776;53.330;11.498;2022-10-24T08:54:28;53775.16;;;-147.39;64.01
3524;BME280;1776;53.330;11.498;2022-10-24T08:56:55;53830.47;;;-147.39;64.52
3524;BME280;1776;53.330;11.498;2022-10-24T08:59:24;53822.28;;;-147.39;66.19
3524;BME280;1776;53.330;11.498;2022-10-24T09:01:59;53830.47;;;-147.39;66.37
3524;BME280;1776;53.330;11.498;2022-10-24T09:04:29;53842.75;;;-147.39;66.85
3524;BME280;1776;53.330;11.498;2022-10-24T09:06:55;53791.53;;;-147.39;66.87
3524;BME280;1776;53.330;11.498;2022-10-24T09:09:33;53801.78;;;-147.39;65.72
3524;BME280;1776;53.330;11.498;2022-10-24T09:12:01;53828.41;;;-147.39;65.36
3524;BME280;1776;53.330;11.498;2022-10-24T09:14:31;53830.47;;;-147.39;66.90
3524;BME280;1776;53.330;11.498;2022-10-24T09:17:00;53783.34;;;-147.39;64.13
3524;BME280;1776;53.330;11.498;2022-10-24T09:19:28;53826.38;;;-147.39;63.41
3524;BME280;1776;53.330;11.498;2022-10-24T09:21:55;53787.44;;;-147.39;62.79
3524;BME280;1776;53.330;11.498;2022-10-24T09:24:32;53762.88;;;-147.39;62.57
3524;BME280;1776;53.330;11.498;2022-10-24T09:27:01;53807.94;;;-147.39;63.83
3524;BME280;1776;53.330;11.498;2022-10-24T09:29:30;53803.84;;;-147.39;62.61
3524;BME280;1776;53.330;11.498;2022-10-24T09:31:56;53777.22;;;-147.39;61.67
3524;BME280;1776;53.330;11.498;2022-10-24T09:34:23;53773.09;;;-147.39;60.79
3524;BME280;1776;53.330;11.498;2022-10-24T09:36:48;53771.06;;;-147.39;60.65
3524;BME280;1776;53.330;11.498;2022-10-24T09:39:30;53769.00;;;-147.39;61.54
3524;BME280;1776;53.330;11.498;2022-10-24T09:41:56;53795.66;;;-147.39;61.93
3524;BME280;1776;53.330;11.498;2022-10-24T09:44:35;53781.31;;;-147.39;62.59
3524;BME280;1776;53.330;11.498;2022-10-24T09:47:03;53799.75;;;-147.39;63.43
3524;BME280;1776;53.330;11.498;2022-10-24T09:49:37;53799.75;;;-147.39;63.92
3524;BME280;1776;53.330;11.498;2022-10-24T09:52:21;53789.50;;;-147.39;63.63
3524;BME280;1776;53.330;11.498;2022-10-24T09:57:40;53781.31;;;-147.39;63.58
3524;BME280;1776;53.330;11.498;2022-10-24T10:00:09;53781.31;;;-147.39;64.31
3524;BME280;1776;53.330;11.498;2022-10-24T10:02:57;53793.59;;;-147.39;64.03
3524;BME280;1776;53.330;11.498;2022-10-24T10:05:22;53764.91;;;-147.39;63.77
3524;BME280;1776;53.330;11.498;2022-10-24T10:07:49;53791.53;;;-147.39;63.96
3524;BME280;1776;53.330;11.498;2022-10-24T10:12:45;53812.03;;;-147.39;63.84
3524;BME280;1776;53.330;11.498;2022-10-24T10:15:19;53785.41;;;-147.39;63.94
3524;BME280;1776;53.330;11.498;2022-10-24T10:17:51;53816.13;;;-147.39;63.82
3524;BME280;1776;53.330;11.498;2022-10-24T10:20:27;53769.00;;;-147.39;63.55
3524;BME280;1776;53.330;11.498;2022-10-24T10:22:54;53795.66;;;-147.39;63.22
3524;BME280;1776;53.330;11.498;2022-10-24T10:25:31;53771.06;;;-147.39;63.63
3524;BME280;1776;53.330;11.498;2022-10-24T10:27:56;53820.22;;;-147.39;63.88
3524;BME280;1776;53.330;11.498;2022-10-24T10:30:23;53775.16;;;-147.39;63.56
3524;BME280;1776;53.330;11.498;2022-10-24T10:32:59;53769.00;;;-147.39;63.99
3524;BME280;1776;53.330;11.498;2022-10-24T10:35:51;53795.66;;;-147.39;62.91
3524;BME280;1776;53.330;11.498;2022-10-24T10:46:43;53781.31;;;-147.39;61.78
3524;BME280;1776;53.330;11.498;2022-10-24T10:49:26;53769.00;;;-147.39;62.38
3524;BME280;1776;53.330;11.498;2022-10-24T10:51:56;53771.06;;;-147.39;61.75
3524;BME280;1776;53.330;11.498;2022-10-24T10:57:02;53787.44;;;-147.39;61.59
3524;BME280;1776;53.330;11.498;2022-10-24T11:10:19;53750.56;;;-147.39;60.26
3524;BME280;1776;53.330;11.498;2022-10-24T11:12:45;53775.16;;;-147.39;60.23
3524;BME280;1776;53.330;11.498;2022-10-24T11:15:22;53760.81;;;-147.39;59.78
3524;BME280;1776;53.330;11.498;2022-10-24T11:18:21;53791.53;;;-147.39;59.47
3524;BME280;1776;53.330;11.498;2022-10-24T11:20:50;53746.47;;;-147.39;58.45
3524;BME280;1776;53.330;11.498;2022-10-24T11:23:29;53744.44;;;-147.39;58.82
3524;BME280;1776;53.330;11.498;2022-10-24T11:26:01;53732.13;;;-147.39;58.84
3524;BME280;1776;53.330;11.498;2022-10-24T11:28:51;53775.16;;;-147.39;58.50
3524;BME280;1776;53.330;11.498;2022-10-24T11:31:24;53769.00;;;-147.39;59.17
3524;BME280;1776;53.330;11.498;2022-10-24T11:34:11;53756.72;;;-147.39;57.50
3524;BME280;1776;53.330;11.498;2022-10-24T11:36:49;53736.22;;;-147.39;57.14
3524;BME280;1776;53.330;11.498;2022-10-24T11:40:05;53742.38;;;-147.39;57.57
3524;BME280;1776;53.330;11.498;2022-10-24T11:45:08;53742.38;;;-147.39;55.12
3524;BME280;1776;53.330;11.498;2022-10-24T11:47:45;53764.91;;;-147.39;55.74
3524;BME280;1776;53.330;11.498;2022-10-24T11:56:18;53764.91;;;-147.39;55.03
3524;BME280;1776;53.330;11.498;2022-10-24T11:58:58;53754.66;;;-147.39;55.24
3524;BME280;1776;53.330;11.498;2022-10-24T12:01:49;53732.13;;;-147.39;54.76
3524;BME280;1776;53.330;11.498;2022-10-24T12:04:32;53760.81;;;-147.39;54.98
3524;BME280;1776;53.330;11.498;2022-10-24T12:07:20;53740.31;;;-147.39;55.30
3524;BME280;1776;53.330;11.498;2022-10-24T12:20:39;53754.66;;;-147.39;54.81
3524;BME280;1776;53.330;11.498;2022-10-24T12:23:05;53795.66;;;-147.39;54.65
3524;BME280;1776;53.330;11.498;2022-10-24T12:25:37;53728.03;;;-147.39;54.15
3524;BME280;1776;53.330;11.498;2022-10-24T12:28:05;53723.94;;;-147.39;54.72
3524;BME280;1776;53.330;11.498;2022-10-24T12:30:34;53744.44;;;-147.39;53.66
3524;BME280;1776;53.330;11.498;2022-10-24T12:33:09;53728.03;;;-147.39;54.23
3524;BME280;1776;53.330;11.498;2022-10-24T12:35:46;53726.00;;;-147.39;53.23
3524;BME280;1776;53.330;11.498;2022-10-24T12:38:20;53744.44;;;-147.39;53.55
3524;BME280;1776;53.330;11.498;2022-10-24T12:41:04;53742.38;;;-147.39;53.93
3524;BME280;1776;53.330;11.498;2022-10-24T12:43:33;53756.72;;;-147.39;53.22
3524;BME280;1776;53.330;11.498;2022-10-24T12:51:34;53736.22;;;-147.39;54.00
3524;BME280;1776;53.330;11.498;2022-10-24T13:01:48;53734.19;;;-147.39;53.20
3524;BME280;1776;53.330;11.498;2022-10-24T13:04:32;53756.72;;;-147.39;53.45
3524;BME280;1776;53.330;11.498;2022-10-24T13:10:07;53736.22;;;-147.39;54.06
3524;BME280;1776;53.330;11.498;2022-10-24T13:15:42;53754.66;;;-147.39;54.26
3524;BME280;1776;53.330;11.498;2022-10-24T13:18:22;53752.63;;;-147.39;54.67
3524;BME280;1776;53.330;11.498;2022-10-24T13:23:46;53758.75;;;-147.39;55.20
3524;BME280;1776;53.330;11.498;2022-10-24T13:26:41;53769.00;;;-147.39;55.51
3524;BME280;1776;53.330;11.498;2022-10-24T13:34:51;53736.22;;;-147.39;55.55
3524;BME280;1776;53.330;11.498;2022-10-24T13:37:26;53769.00;;;-147.39;55.59
3524;BME280;1776;53.330;11.498;2022-10-24T13:39:56;53752.63;;;-147.39;55.84
3524;BME280;1776;53.330;11.498;2022-10-24T13:42:36;53762.88;;;-147.39;55.95
3524;BME280;1776;53.330;11.498;2022-10-24T13:48:22;53775.16;;;-147.39;56.05
3524;BME280;1776;53.330;11.498;2022-10-24T13:51:16;53766.97;;;-147.39;56.39
3524;BME280;1776;53.330;11.498;2022-10-24T13:54:05;53748.53;;;-147.39;55.86
3524;BME280;1776;53.330;11.498;2022-10-24T13:56:36;53728.03;;;-147.39;55.34
3524;BME280;1776;53.330;11.498;2022-10-24T13:59:03;53748.53;;;-147.39;54.99
3524;BME280;1776;53.330;11.498;2022-10-24T14:01:29;53732.13;;;-147.39;54.56
3524;BME280;1776;53.330;11.498;2022-10-24T14:03:56;53791.53;;;-147.39;53.96
3524;BME280;1776;53.330;11.498;2022-10-24T14:06:28;53752.63;;;-147.39;53.98
3524;BME280;1776;53.330;11.498;2022-10-24T14:08:57;53766.97;;;-147.39;53.80
3524;BME280;1776;53.330;11.498;2022-10-24T14:11:25;53750.56;;;-147.39;52.79
3524;BME280;1776;53.330;11.498;2022-10-24T14:13:57;53771.06;;;-147.39;52.32
3524;BME280;1776;53.330;11.498;2022-10-24T14:16:25;53746.47;;;-147.39;51.40
3524;BME280;1776;53.330;11.498;2022-10-24T14:19:15;53764.91;;;-147.39;50.70
3524;BME280;1776;53.330;11.498;2022-10-24T14:21:45;53744.44;;;-147.39;50.94
3524;BME280;1776;53.330;11.498;2022-10-24T14:24:19;53775.16;;;-147.39;51.09
3524;BME280;1776;53.330;11.498;2022-10-24T14:26:45;53762.88;;;-147.39;51.06
3524;BME280;1776;53.330;11.498;2022-10-24T14:29:21;53775.16;;;-147.39;50.49
3524;BME280;1776;53.330;11.498;2022-10-24T14:32:06;53740.31;;;-147.39;50.75
3524;BME280;1776;53.330;11.498;2022-10-24T14:34:38;53764.91;;;-147.39;50.19
3524;BME280;1776;53.330;11.498;2022-10-24T14:37:06;53750.56;;;-147.39;50.34
3524;BME280;1776;53.330;11.498;2022-10-24T14:39:32;53773.09;;;-147.39;50.10
3524;BME280;1776;53.330;11.498;2022-10-24T14:41:58;53748.53;;;-147.39;50.54
3524;BME280;1776;53.330;11.498;2022-10-24T14:44:26;53861.19;;;-147.39;50.57